Time;durP1;ratioP1;P1;durP2;ratioP2;P2;SDS_P1;SDS_P2;PMS_P1;PMS_P2;Temp;Humidity;BMP_temperature;BMP_pressure;BME280_temperature;BME280_humidity;BME280_pressure;Samples;Min_cycle;Max_cycle;Signal;HPM_P1;HPM_P2
2023/06/29 00:01:55;;;;;;;2.72;1.30;;;;;;;;;;8349017;28;20040;-61
2023/06/29 00:05:55;;;;;;;1.45;1.30;;;;;;;;;;8342341;28;20122;-61
2023/06/29 00:09:56;;;;;;;4.17;1.30;;;;;;;;;;8338311;28;20028;-61
2023/06/29 00:13:56;;;;;;;3.40;1.30;;;;;;;;;;8339043;28;20045;-60
2023/06/29 00:17:57;;;;;;;1.70;1.30;;;;;;;;;;8347605;28;20044;-61
2023/06/29 00:21:58;;;;;;;1.70;1.20;;;;;;;;;;8338166;28;20036;-61
2023/06/29 00:25:58;;;;;;;2.05;1.35;;;;;;;;;;8349716;28;20028;-61
2023/06/29 00:29:59;;;;;;;2.30;1.40;;;;;;;;;;8347968;28;20446;-61
2023/06/29 00:33:59;;;;;;;2.90;1.70;;;;;;;;;;8348109;28;20036;-61
2023/06/29 00:37:59;;;;;;;2.17;1.50;;;;;;;;;;8336064;28;20128;-61
2023/06/29 00:41:59;;;;;;;2.13;1.30;;;;;;;;;;8336865;28;20062;-61
2023/06/29 00:46:02;;;;;;;1.90;1.23;;;;;;;;;;8337302;28;20044;-60
2023/06/29 00:50:02;;;;;;;1.60;1.33;;;;;;;;;;8338213;28;20712;-60
2023/06/29 00:54:03;;;;;;;2.80;1.50;;;;;;;;;;8335810;28;20577;-61
2023/06/29 00:58:03;;;;;;;4.40;1.60;;;;;;;;;;8318730;28;20109;-61
2023/06/29 01:02:03;;;;;;;3.83;1.48;;;;;;;;;;8328417;28;20131;-61
2023/06/29 01:06:08;;;;;;;2.00;1.60;;;;;;;;;;8336883;28;20032;-61
2023/06/29 01:10:09;;;;;;;2.08;1.85;;;;;;;;;;8335075;28;20021;-61
2023/06/29 01:14:11;;;;;;;2.50;1.55;;;;;;;;;;8337364;28;20043;-61
2023/06/29 01:18:12;;;;;;;2.20;1.60;;;;;;;;;;8331959;28;20036;-61
2023/06/29 01:22:21;;;;;;;3.70;1.65;;;;;;;;;;8336388;28;20329;-61
2023/06/29 01:26:22;;;;;;;4.47;1.58;;;;;;;;;;8337001;28;20017;-61
2023/06/29 01:30:23;;;;;;;3.88;1.48;;;;;;;;;;8340617;28;20048;-61
2023/06/29 01:34:23;;;;;;;2.67;1.40;;;;;;;;;;8342342;28;20031;-61
2023/06/29 01:38:26;;;;;;;2.43;1.40;;;;;;;;;;8339868;28;20033;-61
2023/06/29 01:42:27;;;;;;;3.20;1.52;;;;;;;;;;8317932;28;20378;-61
2023/06/29 01:46:28;;;;;;;3.13;1.60;;;;;;;;;;8335249;28;20044;-61
2023/06/29 01:50:28;;;;;;;2.58;1.40;;;;;;;;;;8347397;28;20079;-61
2023/06/29 01:54:28;;;;;;;1.60;1.40;;;;;;;;;;8337669;28;20867;-61
2023/06/29 01:58:29;;;;;;;2.08;1.40;;;;;;;;;;8339624;28;20089;-61
2023/06/29 02:02:29;;;;;;;2.67;1.70;;;;;;;;;;8336374;28;20101;-61
2023/06/29 02:06:30;;;;;;;2.45;1.55;;;;;;;;;;8345356;28;20824;-60
2023/06/29 02:10:31;;;;;;;2.50;1.60;;;;;;;;;;8338515;28;20039;-61
2023/06/29 02:14:32;;;;;;;3.53;1.42;;;;;;;;;;8334334;28;20021;-61
2023/06/29 02:18:32;;;;;;;2.47;1.50;;;;;;;;;;8339109;28;20174;-60
2023/06/29 02:22:32;;;;;;;2.08;1.52;;;;;;;;;;8332607;28;20024;-61
2023/06/29 02:26:32;;;;;;;1.57;1.40;;;;;;;;;;8335228;28;20143;-61
2023/06/29 02:30:33;;;;;;;2.70;1.50;;;;;;;;;;8339694;28;20052;-61
2023/06/29 02:34:33;;;;;;;2.28;1.50;;;;;;;;;;8336037;28;20082;-61
2023/06/29 02:38:33;;;;;;;4.65;1.70;;;;;;;;;;8333589;28;20503;-60
2023/06/29 02:42:33;;;;;;;2.43;1.53;;;;;;;;;;8334996;28;20028;-60
2023/06/29 02:46:33;;;;;;;3.43;1.57;;;;;;;;;;8332769;28;20056;-60
2023/06/29 02:50:34;;;;;;;3.30;1.73;;;;;;;;;;8335641;28;20029;-61
2023/06/29 02:54:34;;;;;;;2.70;1.70;;;;;;;;;;8337774;28;20028;-60
2023/06/29 02:58:34;;;;;;;2.47;1.60;;;;;;;;;;8328364;28;20034;-60
2023/06/29 03:02:34;;;;;;;3.72;1.65;;;;;;;;;;8336247;28;20031;-60
2023/06/29 03:06:35;;;;;;;1.50;1.40;;;;;;;;;;8338818;28;20033;-61
2023/06/29 03:10:35;;;;;;;4.27;1.80;;;;;;;;;;8335839;28;20029;-61
2023/06/29 03:14:35;;;;;;;2.92;1.92;;;;;;;;;;8339092;28;20048;-61
2023/06/29 03:18:35;;;;;;;2.65;1.55;;;;;;;;;;8344288;28;20041;-61
2023/06/29 03:22:35;;;;;;;2.00;1.45;;;;;;;;;;8343935;28;20034;-60
2023/06/29 03:26:35;;;;;;;2.15;1.40;;;;;;;;;;8333720;28;20127;-60
2023/06/29 03:30:36;;;;;;;2.22;1.60;;;;;;;;;;8333896;28;20041;-60
2023/06/29 03:34:36;;;;;;;2.38;1.73;;;;;;;;;;8333501;28;20021;-61
2023/06/29 03:38:36;;;;;;;3.15;1.75;;;;;;;;;;8340692;28;20032;-62
2023/06/29 03:42:36;;;;;;;4.50;1.77;;;;;;;;;;8344081;28;20398;-61
2023/06/29 03:46:36;;;;;;;3.35;1.70;;;;;;;;;;8336788;28;20060;-62
2023/06/29 03:50:37;;;;;;;3.28;1.92;;;;;;;;;;8345328;28;20131;-61
2023/06/29 03:54:37;;;;;;;3.17;1.80;;;;;;;;;;8349344;28;20063;-61
2023/06/29 03:58:37;;;;;;;3.63;1.90;;;;;;;;;;8346506;28;20059;-62
2023/06/29 04:02:37;;;;;;;3.13;1.88;;;;;;;;;;8337972;28;20040;-62
2023/06/29 04:06:38;;;;;;;2.22;1.65;;;;;;;;;;8341101;28;20098;-61
2023/06/29 04:10:38;;;;;;;2.42;1.92;;;;;;;;;;8337345;28;20064;-61
2023/06/29 04:14:38;;;;;;;1.85;1.70;;;;;;;;;;8336874;28;20028;-61
2023/06/29 04:18:38;;;;;;;3.53;1.40;;;;;;;;;;8344824;28;20130;-61
2023/06/29 04:22:38;;;;;;;1.83;1.60;;;;;;;;;;8349139;28;20773;-62
2023/06/29 04:26:40;;;;;;;1.87;1.47;;;;;;;;;;8340012;28;20090;-61
2023/06/29 04:30:41;;;;;;;2.40;1.75;;;;;;;;;;8342564;28;20076;-61
2023/06/29 04:34:41;;;;;;;1.88;1.50;;;;;;;;;;8327827;28;20361;-62
2023/06/29 04:38:42;;;;;;;2.35;1.50;;;;;;;;;;8338154;28;20116;-61
2023/06/29 04:42:46;;;;;;;2.67;1.63;;;;;;;;;;8336126;28;20044;-61
2023/06/29 04:46:48;;;;;;;2.90;1.80;;;;;;;;;;8332927;28;20127;-61
2023/06/29 04:50:48;;;;;;;3.30;1.65;;;;;;;;;;8333921;28;20036;-61
2023/06/29 04:54:48;;;;;;;3.78;1.70;;;;;;;;;;8330633;28;20024;-61
2023/06/29 04:58:48;;;;;;;3.05;1.90;;;;;;;;;;8334327;28;20036;-61
2023/06/29 05:02:49;;;;;;;5.32;1.90;;;;;;;;;;8335986;28;20131;-61
2023/06/29 05:06:49;;;;;;;2.77;2.00;;;;;;;;;;8332365;28;20047;-61
2023/06/29 05:10:50;;;;;;;3.65;2.22;;;;;;;;;;8336108;28;20108;-61
2023/06/29 05:14:50;;;;;;;4.07;2.00;;;;;;;;;;8335595;28;20056;-61
2023/06/29 05:18:50;;;;;;;3.47;1.80;;;;;;;;;;8331232;28;20040;-61
2023/06/29 05:22:50;;;;;;;3.55;1.92;;;;;;;;;;8318269;28;20021;-61
2023/06/29 05:26:51;;;;;;;3.42;1.95;;;;;;;;;;8337410;28;20033;-62
2023/06/29 05:30:51;;;;;;;2.37;1.70;;;;;;;;;;8333721;28;20906;-61
2023/06/29 05:34:51;;;;;;;3.17;1.85;;;;;;;;;;8335175;28;20476;-61
2023/06/29 05:38:51;;;;;;;3.88;1.98;;;;;;;;;;8335178;28;20709;-61
2023/06/29 05:42:51;;;;;;;4.75;1.90;;;;;;;;;;8340978;28;20681;-61
2023/06/29 05:46:52;;;;;;;7.18;1.90;;;;;;;;;;8332779;28;20566;-61
2023/06/29 05:50:52;;;;;;;5.45;1.77;;;;;;;;;;8345922;28;20032;-61
2023/06/29 05:54:52;;;;;;;3.33;1.67;;;;;;;;;;8345742;28;20028;-61
2023/06/29 05:58:53;;;;;;;5.53;1.70;;;;;;;;;;8337571;28;20036;-59
2023/06/29 06:02:53;;;;;;;5.90;1.67;;;;;;;;;;8332657;28;20052;-61
2023/06/29 06:06:54;;;;;;;4.43;1.63;;;;;;;;;;8332803;28;20033;-61
2023/06/29 06:10:54;;;;;;;1.60;1.50;;;;;;;;;;8328169;28;20056;-62
2023/06/29 06:14:54;;;;;;;3.73;1.80;;;;;;;;;;8332513;28;20047;-61
2023/06/29 06:18:55;;;;;;;2.67;1.70;;;;;;;;;;8330665;28;20294;-61
2023/06/29 06:22:55;;;;;;;4.20;1.77;;;;;;;;;;8339407;28;20161;-59
2023/06/29 06:26:55;;;;;;;5.00;1.92;;;;;;;;;;8333360;28;20024;-60
2023/06/29 06:30:55;;;;;;;6.50;2.10;;;;;;;;;;8333825;28;20080;-60
2023/06/29 06:34:55;;;;;;;4.93;1.95;;;;;;;;;;8314379;28;20770;-60
2023/06/29 06:38:56;;;;;;;2.63;1.60;;;;;;;;;;8342958;28;20118;-60
2023/06/29 06:42:56;;;;;;;5.00;1.87;;;;;;;;;;8335143;28;20471;-60
2023/06/29 06:46:56;;;;;;;6.15;2.10;;;;;;;;;;8332902;28;20490;-60
2023/06/29 06:50:56;;;;;;;3.08;1.70;;;;;;;;;;8337262;28;20944;-60
2023/06/29 06:54:57;;;;;;;3.60;1.70;;;;;;;;;;8330350;28;20407;-60
2023/06/29 06:58:57;;;;;;;5.43;1.70;;;;;;;;;;8331772;28;20062;-60
2023/06/29 07:02:57;;;;;;;4.40;1.87;;;;;;;;;;8333861;28;20355;-60
2023/06/29 07:06:57;;;;;;;3.35;1.92;;;;;;;;;;8331993;28;20409;-60
2023/06/29 07:10:57;;;;;;;3.45;1.50;;;;;;;;;;8328647;28;20083;-60
2023/06/29 07:14:58;;;;;;;4.53;1.80;;;;;;;;;;8331813;28;20144;-60
2023/06/29 07:19:06;;;;;;;4.40;1.90;;;;;;;;;;8332898;28;20123;-60
2023/06/29 07:23:06;;;;;;;3.30;1.52;;;;;;;;;;8348980;28;20052;-60
2023/06/29 07:27:06;;;;;;;6.28;1.60;;;;;;;;;;8349493;28;20029;-60
2023/06/29 07:31:06;;;;;;;2.55;1.60;;;;;;;;;;8350116;28;20451;-60
2023/06/29 07:35:06;;;;;;;2.97;1.55;;;;;;;;;;8347951;28;20024;-60
2023/06/29 07:39:07;;;;;;;2.40;1.40;;;;;;;;;;8341710;28;20039;-60
2023/06/29 07:43:07;;;;;;;5.72;1.67;;;;;;;;;;8336774;28;20358;-60
2023/06/29 07:47:07;;;;;;;2.88;1.55;;;;;;;;;;8340164;28;20033;-60
2023/06/29 07:51:07;;;;;;;4.18;1.70;;;;;;;;;;8336526;28;20056;-60
2023/06/29 07:55:08;;;;;;;3.80;1.70;;;;;;;;;;8341357;28;20079;-60
2023/06/29 07:59:08;;;;;;;5.80;1.63;;;;;;;;;;8348239;28;20032;-60
2023/06/29 08:03:08;;;;;;;3.57;1.50;;;;;;;;;;8342065;28;20029;-60
2023/06/29 08:07:09;;;;;;;4.35;1.63;;;;;;;;;;8348816;28;20124;-60
2023/06/29 08:11:12;;;;;;;5.37;1.50;;;;;;;;;;8343797;28;20207;-60
2023/06/29 08:15:13;;;;;;;4.72;1.50;;;;;;;;;;8336878;28;20270;-60
2023/06/29 08:19:13;;;;;;;4.83;1.57;;;;;;;;;;8337744;28;20503;-60
2023/06/29 08:23:14;;;;;;;3.92;1.60;;;;;;;;;;8345194;28;20032;-60
2023/06/29 08:27:14;;;;;;;6.25;1.77;;;;;;;;;;8335907;28;20024;-60
2023/06/29 08:31:15;;;;;;;2.05;1.45;;;;;;;;;;8335811;28;20685;-60
2023/06/29 08:35:15;;;;;;;2.72;1.65;;;;;;;;;;8337608;28;20026;-60
2023/06/29 08:39:15;;;;;;;2.93;1.60;;;;;;;;;;8336411;28;20103;-60
2023/06/29 08:43:15;;;;;;;2.15;1.50;;;;;;;;;;8330632;28;20099;-60
2023/06/29 08:47:16;;;;;;;3.40;1.70;;;;;;;;;;8329693;28;20644;-60
2023/06/29 08:51:18;;;;;;;3.60;1.70;;;;;;;;;;8336249;28;20021;-60
2023/06/29 08:55:18;;;;;;;;;;;;;;;;;;8337003;28;20029;-60
2023/06/29 08:59:19;;;;;;;6.32;1.70;;;;;;;;;;8345673;28;20109;-60
2023/06/29 09:03:21;;;;;;;2.65;1.42;;;;;;;;;;8333536;28;20045;-60
2023/06/29 09:07:21;;;;;;;2.55;1.63;;;;;;;;;;8336330;28;20038;-60
2023/06/29 09:11:22;;;;;;;3.58;1.80;;;;;;;;;;8341138;28;20032;-60
2023/06/29 09:15:25;;;;;;;3.20;1.40;;;;;;;;;;8334999;28;20482;-60
2023/06/29 09:19:26;;;;;;;2.20;1.50;;;;;;;;;;8333659;28;20267;-61
2023/06/29 09:23:26;;;;;;;3.70;1.95;;;;;;;;;;8348971;28;20584;-61
2023/06/29 09:27:26;;;;;;;2.42;1.55;;;;;;;;;;8334835;28;20020;-60
2023/06/29 09:31:28;;;;;;;5.27;1.80;;;;;;;;;;8343648;28;20048;-60
2023/06/29 09:35:28;;;;;;;3.10;1.98;;;;;;;;;;8345801;28;20028;-61
2023/06/29 09:39:28;;;;;;;1.70;1.60;;;;;;;;;;8336145;28;20029;-60
2023/06/29 09:43:30;;;;;;;5.95;1.92;;;;;;;;;;8336791;28;20217;-60
2023/06/29 09:47:31;;;;;;;2.63;1.90;;;;;;;;;;8342189;28;20037;-60
2023/06/29 09:51:31;;;;;;;2.63;1.83;;;;;;;;;;8340349;28;20029;-60
2023/06/29 09:55:32;;;;;;;2.78;2.00;;;;;;;;;;8336703;28;20315;-60
2023/06/29 09:59:36;;;;;;;1.98;1.60;;;;;;;;;;8337701;28;20078;-60
2023/06/29 10:03:37;;;;;;;2.47;1.70;;;;;;;;;;8333496;28;20068;-60
2023/06/29 10:07:38;;;;;;;3.40;1.85;;;;;;;;;;8334702;28;20036;-60
2023/06/29 10:11:39;;;;;;;2.45;1.80;;;;;;;;;;8332754;28;20020;-60
2023/06/29 10:15:40;;;;;;;4.20;1.80;;;;;;;;;;8338381;28;20155;-61
2023/06/29 10:19:42;;;;;;;3.83;1.87;;;;;;;;;;8347034;28;20044;-61
2023/06/29 10:23:42;;;;;;;6.57;1.80;;;;;;;;;;8345685;28;20067;-60
2023/06/29 10:27:43;;;;;;;6.45;2.13;;;;;;;;;;8334403;28;20132;-60
2023/06/29 10:31:49;;;;;;;5.77;2.30;;;;;;;;;;8332438;28;20037;-60
2023/06/29 10:36:01;;;;;;;4.40;1.95;;;;;;;;;;8341537;28;21128;-60
2023/06/29 10:40:01;;;;;;;4.15;2.10;;;;;;;;;;8334387;28;20125;-60
2023/06/29 10:44:05;;;;;;;5.43;1.98;;;;;;;;;;8333214;28;20044;-60
2023/06/29 10:48:06;;;;;;;5.13;1.90;;;;;;;;;;8338633;28;20032;-60
2023/06/29 10:52:07;;;;;;;4.30;2.25;;;;;;;;;;8334417;28;20422;-60
2023/06/29 10:56:27;;;;;;;3.90;1.98;;;;;;;;;;8337771;28;20150;-60
2023/06/29 11:00:27;;;;;;;9.45;2.03;;;;;;;;;;8340559;28;20105;-60
2023/06/29 11:04:28;;;;;;;6.80;1.90;;;;;;;;;;8338003;28;20057;-60
2023/06/29 11:08:30;;;;;;;2.03;1.83;;;;;;;;;;8340173;28;20200;-60
2023/06/29 11:12:31;;;;;;;3.25;1.83;;;;;;;;;;8337554;28;20440;-60
2023/06/29 11:16:32;;;;;;;3.50;2.00;;;;;;;;;;8336454;28;20496;-60
2023/06/29 11:20:34;;;;;;;4.18;1.90;;;;;;;;;;8348244;28;20028;-60
2023/06/29 11:24:35;;;;;;;4.20;1.87;;;;;;;;;;8338618;28;20025;-60
2023/06/29 11:28:35;;;;;;;2.15;1.95;;;;;;;;;;8337842;28;20731;-60
2023/06/29 11:32:36;;;;;;;2.60;2.08;;;;;;;;;;8337314;28;20037;-60
2023/06/29 11:36:36;;;;;;;5.65;2.08;;;;;;;;;;8337754;28;20757;-60
2023/06/29 11:40:37;;;;;;;7.80;2.35;;;;;;;;;;8337727;28;20044;-60
2023/06/29 11:44:37;;;;;;;4.15;2.30;;;;;;;;;;8331898;28;20032;-61
2023/06/29 11:48:38;;;;;;;3.22;2.20;;;;;;;;;;8336903;28;20041;-60
2023/06/29 11:52:39;;;;;;;5.82;2.20;;;;;;;;;;8337612;28;20056;-60
2023/06/29 11:56:41;;;;;;;3.25;2.05;;;;;;;;;;8329808;28;20021;-62
2023/06/29 12:00:41;;;;;;;;;;;;;;;;;;8337343;28;20064;-61
2023/06/29 12:04:55;;;;;;;7.72;2.50;;;;;;;;;;8338280;28;19935;-61
2023/06/29 12:08:55;;;;;;;4.40;2.20;;;;;;;;;;8336975;28;20021;-61
2023/06/29 12:12:58;;;;;;;5.40;2.30;;;;;;;;;;8339289;28;20059;-61
2023/06/29 12:17:00;;;;;;;3.60;2.60;;;;;;;;;;8344283;28;20958;-60
2023/06/29 12:21:03;;;;;;;4.20;2.20;;;;;;;;;;8341065;28;20231;-61
2023/06/29 12:25:04;;;;;;;5.57;2.35;;;;;;;;;;8330249;28;20052;-60
2023/06/29 12:29:05;;;;;;;3.03;2.27;;;;;;;;;;8317448;28;20061;-60
2023/06/29 12:33:05;;;;;;;3.50;2.10;;;;;;;;;;8336010;28;20037;-60
2023/06/29 12:37:05;;;;;;;2.78;2.15;;;;;;;;;;8335580;28;20055;-61
2023/06/29 12:41:05;;;;;;;3.50;2.60;;;;;;;;;;8333493;28;20097;-60
2023/06/29 12:45:06;;;;;;;3.37;2.50;;;;;;;;;;8329847;28;20028;-61
2023/06/29 12:49:06;;;;;;;2.92;2.13;;;;;;;;;;8327041;28;20067;-61
2023/06/29 12:53:06;;;;;;;5.15;2.47;;;;;;;;;;8335429;28;20052;-60
2023/06/29 12:57:06;;;;;;;4.65;2.60;;;;;;;;;;8336238;28;20034;-61
2023/06/29 13:01:07;;;;;;;5.30;2.50;;;;;;;;;;8334561;28;20047;-61
2023/06/29 13:05:07;;;;;;;3.28;2.70;;;;;;;;;;8337298;28;20120;-61
2023/06/29 13:09:08;;;;;;;4.93;2.67;;;;;;;;;;8333766;28;20016;-61
2023/06/29 13:13:08;;;;;;;3.65;2.47;;;;;;;;;;8333279;28;20029;-60
2023/06/29 13:17:09;;;;;;;3.78;2.60;;;;;;;;;;8337649;28;20444;-61
2023/06/29 13:21:09;;;;;;;3.00;2.65;;;;;;;;;;8333899;28;20748;-61
2023/06/29 13:25:09;;;;;;;4.03;2.63;;;;;;;;;;8330203;28;20021;-61
2023/06/29 13:29:10;;;;;;;2.95;2.38;;;;;;;;;;8331160;28;20090;-61
2023/06/29 13:33:10;;;;;;;4.13;2.90;;;;;;;;;;8329645;28;20120;-61
2023/06/29 13:37:10;;;;;;;3.00;2.70;;;;;;;;;;8331031;28;20400;-61
2023/06/29 13:41:10;;;;;;;3.20;2.53;;;;;;;;;;8323564;28;20036;-61
2023/06/29 13:45:11;;;;;;;5.10;3.00;;;;;;;;;;8330246;28;20035;-61
2023/06/29 13:49:11;;;;;;;5.80;2.80;;;;;;;;;;8336614;28;20955;-61
2023/06/29 13:53:14;;;;;;;5.50;2.90;;;;;;;;;;8330694;28;20025;-61
2023/06/29 13:57:14;;;;;;;4.88;2.75;;;;;;;;;;8331195;28;20128;-61
2023/06/29 14:01:15;;;;;;;3.10;2.78;;;;;;;;;;8331823;28;20041;-61
2023/06/29 14:05:15;;;;;;;4.63;2.97;;;;;;;;;;8331150;28;20104;-61
2023/06/29 14:09:15;;;;;;;5.38;3.10;;;;;;;;;;8332059;28;20028;-61
2023/06/29 14:13:15;;;;;;;5.20;3.10;;;;;;;;;;8333919;28;20024;-61
2023/06/29 14:17:20;;;;;;;3.13;2.73;;;;;;;;;;8328562;28;20041;-61
2023/06/29 14:21:21;;;;;;;4.75;3.35;;;;;;;;;;8335845;28;20033;-61
2023/06/29 14:25:21;;;;;;;8.38;3.70;;;;;;;;;;8330726;28;20154;-61
2023/06/29 14:29:22;;;;;;;4.93;3.30;;;;;;;;;;8330194;28;20036;-61
2023/06/29 14:33:22;;;;;;;4.30;3.30;;;;;;;;;;8335262;28;20668;-61
2023/06/29 14:37:24;;;;;;;5.20;3.40;;;;;;;;;;8327043;28;20023;-61
2023/06/29 14:41:25;;;;;;;7.07;3.17;;;;;;;;;;8328158;28;20887;-61
2023/06/29 14:45:25;;;;;;;7.35;3.45;;;;;;;;;;8327223;28;20032;-61
2023/06/29 14:49:25;;;;;;;3.35;3.05;;;;;;;;;;8329581;28;20092;-61
2023/06/29 14:53:26;;;;;;;5.13;3.30;;;;;;;;;;8331493;28;20687;-61
2023/06/29 14:57:26;;;;;;;6.88;3.45;;;;;;;;;;8330180;28;20048;-61
2023/06/29 15:01:26;;;;;;;7.32;3.22;;;;;;;;;;8331175;28;20199;-61
2023/06/29 15:05:27;;;;;;;4.68;3.35;;;;;;;;;;8331715;28;20037;-61
2023/06/29 15:09:28;;;;;;;4.53;3.40;;;;;;;;;;8331607;28;20108;-61
2023/06/29 15:13:28;;;;;;;4.68;3.60;;;;;;;;;;8328965;28;20409;-61
2023/06/29 15:17:29;;;;;;;5.18;3.35;;;;;;;;;;8329010;28;20524;-61
2023/06/29 15:21:29;;;;;;;6.70;3.25;;;;;;;;;;8329134;28;20028;-61
2023/06/29 15:25:29;;;;;;;3.63;3.33;;;;;;;;;;8306222;28;20041;-61
2023/06/29 15:29:30;;;;;;;6.77;3.50;;;;;;;;;;8327402;28;20021;-61
2023/06/29 15:33:30;;;;;;;3.80;3.40;;;;;;;;;;8332139;28;21161;-61
2023/06/29 15:37:31;;;;;;;4.88;3.50;;;;;;;;;;8327764;28;20033;-61
2023/06/29 15:41:32;;;;;;;5.22;3.75;;;;;;;;;;8329672;28;20108;-61
2023/06/29 15:45:32;;;;;;;5.18;3.83;;;;;;;;;;8335379;28;20119;-61
2023/06/29 15:49:33;;;;;;;4.88;3.60;;;;;;;;;;8335063;28;20031;-61
2023/06/29 15:53:33;;;;;;;4.70;3.70;;;;;;;;;;8311990;28;20140;-61
2023/06/29 15:57:33;;;;;;;8.43;3.63;;;;;;;;;;8333982;28;20043;-61
2023/06/29 16:01:33;;;;;;;4.25;3.72;;;;;;;;;;8334684;28;20039;-61
2023/06/29 16:05:34;;;;;;;4.85;4.20;;;;;;;;;;8341671;28;20025;-61
2023/06/29 16:09:37;;;;;;;4.68;3.63;;;;;;;;;;8333594;28;20016;-61
2023/06/29 16:13:37;;;;;;;;;;;;;;;;;;8327983;28;20417;-61
2023/06/29 16:17:37;;;;;;;5.22;4.00;;;;;;;;;;8325238;28;19921;-61
2023/06/29 16:21:37;;;;;;;5.70;3.60;;;;;;;;;;8330740;28;20021;-61
2023/06/29 16:25:37;;;;;;;4.75;3.72;;;;;;;;;;8326008;28;20271;-61
2023/06/29 16:29:38;;;;;;;4.70;4.07;;;;;;;;;;8328067;28;20357;-61
2023/06/29 16:33:38;;;;;;;6.23;3.83;;;;;;;;;;8328208;28;20415;-61
2023/06/29 16:37:40;;;;;;;6.35;4.30;;;;;;;;;;8324845;28;20139;-61
2023/06/29 16:41:41;;;;;;;;;;;;;;;;;;8326571;28;20472;-61
2023/06/29 16:45:41;;;;;;;4.70;4.18;;;;;;;;;;8339955;28;20000;-61
2023/06/29 16:49:41;;;;;;;6.57;4.03;;;;;;;;;;8328096;28;20496;-61
2023/06/29 16:53:41;;;;;;;5.82;4.10;;;;;;;;;;8331274;28;20421;-61
2023/06/29 16:57:42;;;;;;;4.97;4.07;;;;;;;;;;8326509;28;20013;-61
2023/06/29 17:01:42;;;;;;;5.73;4.40;;;;;;;;;;8324784;28;20048;-61
2023/06/29 17:05:42;;;;;;;4.93;4.03;;;;;;;;;;8326591;28;20075;-61
2023/06/29 17:09:42;;;;;;;5.78;4.22;;;;;;;;;;8314644;28;20118;-61
2023/06/29 17:13:43;;;;;;;5.10;3.97;;;;;;;;;;8336320;28;20084;-61
2023/06/29 17:17:43;;;;;;;4.45;4.03;;;;;;;;;;8324537;28;20033;-61
2023/06/29 17:21:43;;;;;;;5.32;4.13;;;;;;;;;;8325675;28;20359;-61
2023/06/29 17:25:47;;;;;;;7.63;4.33;;;;;;;;;;8332558;28;20039;-61
2023/06/29 17:29:48;;;;;;;5.95;4.32;;;;;;;;;;8335064;28;20028;-61
2023/06/29 17:33:48;;;;;;;5.22;4.20;;;;;;;;;;8329482;28;20086;-61
2023/06/29 17:37:48;;;;;;;5.65;4.43;;;;;;;;;;8340136;28;20105;-61
2023/06/29 17:41:49;;;;;;;5.28;4.30;;;;;;;;;;8331721;28;20053;-61
2023/06/29 17:45:49;;;;;;;6.57;4.70;;;;;;;;;;8331038;28;20071;-61
2023/06/29 17:49:50;;;;;;;5.30;4.15;;;;;;;;;;8330966;28;20275;-61
2023/06/29 17:53:50;;;;;;;5.55;4.30;;;;;;;;;;8327527;28;20025;-61
2023/06/29 17:57:50;;;;;;;7.47;4.20;;;;;;;;;;8326930;28;20484;-62
2023/06/29 18:01:50;;;;;;;8.73;4.40;;;;;;;;;;8332827;28;20112;-61
2023/06/29 18:05:51;;;;;;;7.27;4.60;;;;;;;;;;8333925;28;20151;-61
2023/06/29 18:09:51;;;;;;;5.70;4.30;;;;;;;;;;8341334;28;20028;-61
2023/06/29 18:13:51;;;;;;;5.38;4.20;;;;;;;;;;8339571;28;20119;-61
2023/06/29 18:17:51;;;;;;;4.40;4.00;;;;;;;;;;8340174;28;20041;-61
2023/06/29 18:21:51;;;;;;;5.57;4.40;;;;;;;;;;8333476;28;20341;-61
2023/06/29 18:25:51;;;;;;;5.20;4.35;;;;;;;;;;8337058;28;21129;-61
2023/06/29 18:29:52;;;;;;;6.65;4.35;;;;;;;;;;8335719;28;20033;-61
2023/06/29 18:33:53;;;;;;;4.55;3.97;;;;;;;;;;8335606;28;20439;-61
2023/06/29 18:37:53;;;;;;;4.80;4.30;;;;;;;;;;8335827;28;20702;-61
2023/06/29 18:41:55;;;;;;;5.20;4.70;;;;;;;;;;8313105;28;20341;-61
2023/06/29 18:45:55;;;;;;;7.82;4.20;;;;;;;;;;8334247;28;20569;-61
2023/06/29 18:49:55;;;;;;;4.90;4.32;;;;;;;;;;8337030;28;20036;-61
2023/06/29 18:53:55;;;;;;;5.20;4.05;;;;;;;;;;8333478;28;20052;-61
2023/06/29 18:57:55;;;;;;;5.32;4.60;;;;;;;;;;8340434;28;20221;-61
2023/06/29 19:01:56;;;;;;;5.22;4.53;;;;;;;;;;8337895;28;20055;-61
2023/06/29 19:05:56;;;;;;;6.00;4.35;;;;;;;;;;8335172;28;20021;-61
2023/06/29 19:09:56;;;;;;;6.28;4.70;;;;;;;;;;8343682;28;20033;-60
2023/06/29 19:13:56;;;;;;;7.00;4.83;;;;;;;;;;8343123;28;20029;-61
2023/06/29 19:17:57;;;;;;;5.28;4.40;;;;;;;;;;8339867;28;20493;-61
2023/06/29 19:21:57;;;;;;;6.18;4.50;;;;;;;;;;8350400;28;20043;-61
2023/06/29 19:25:58;;;;;;;6.10;4.40;;;;;;;;;;8317451;28;20090;-61
2023/06/29 19:29:58;;;;;;;5.47;4.63;;;;;;;;;;8345429;28;20035;-60
2023/06/29 19:33:59;;;;;;;6.28;4.80;;;;;;;;;;8339013;28;21522;-61
2023/06/29 19:37:59;;;;;;;6.07;4.50;;;;;;;;;;8340496;28;20066;-61
2023/06/29 19:42:00;;;;;;;7.90;4.43;;;;;;;;;;8340018;28;20097;-61
2023/06/29 19:46:01;;;;;;;6.38;4.90;;;;;;;;;;8347003;28;20045;-60
2023/06/29 19:50:03;;;;;;;7.97;5.07;;;;;;;;;;8341284;28;20119;-60
2023/06/29 19:54:03;;;;;;;5.05;4.20;;;;;;;;;;8340663;28;20660;-61
2023/06/29 19:58:04;;;;;;;6.60;4.30;;;;;;;;;;8339181;28;20024;-60
2023/06/29 20:02:04;;;;;;;5.80;4.20;;;;;;;;;;8340179;28;20033;-60
2023/06/29 20:06:06;;;;;;;5.77;4.10;;;;;;;;;;8339129;28;20971;-60
2023/06/29 20:10:06;;;;;;;7.43;4.03;;;;;;;;;;8341866;28;20584;-61
2023/06/29 20:14:06;;;;;;;6.87;4.33;;;;;;;;;;8343013;28;20024;-60
2023/06/29 20:18:08;;;;;;;5.95;4.30;;;;;;;;;;8339413;28;20912;-60
2023/06/29 20:22:08;;;;;;;6.68;4.00;;;;;;;;;;8335108;28;20023;-61
2023/06/29 20:26:08;;;;;;;6.70;4.20;;;;;;;;;;8339419;28;20052;-60
2023/06/29 20:30:09;;;;;;;5.68;4.18;;;;;;;;;;8332935;28;20097;-60
2023/06/29 20:34:09;;;;;;;6.50;3.95;;;;;;;;;;8340833;28;20021;-60
2023/06/29 20:38:09;;;;;;;7.05;4.07;;;;;;;;;;8335547;28;20029;-60
2023/06/29 20:42:10;;;;;;;18.00;4.50;;;;;;;;;;8339903;28;20484;-60
2023/06/29 20:46:10;;;;;;;10.33;4.33;;;;;;;;;;8334683;28;20095;-60
2023/06/29 20:50:10;;;;;;;8.65;4.20;;;;;;;;;;8336237;28;20292;-61
2023/06/29 20:54:10;;;;;;;11.23;3.40;;;;;;;;;;8331401;28;20056;-61
2023/06/29 20:58:10;;;;;;;13.30;3.50;;;;;;;;;;8329337;28;20016;-60
2023/06/29 21:02:11;;;;;;;6.63;3.60;;;;;;;;;;8327149;28;20036;-60
2023/06/29 21:06:11;;;;;;;9.15;3.78;;;;;;;;;;8323413;28;20178;-60
2023/06/29 21:10:11;;;;;;;6.07;3.40;;;;;;;;;;8334384;28;20036;-60
2023/06/29 21:14:12;;;;;;;6.80;3.35;;;;;;;;;;8335930;28;21027;-60
2023/06/29 21:18:12;;;;;;;6.10;3.60;;;;;;;;;;8342247;28;20039;-60
2023/06/29 21:22:12;;;;;;;4.27;3.23;;;;;;;;;;8342955;28;20814;-60
2023/06/29 21:26:12;;;;;;;5.43;2.90;;;;;;;;;;8332837;28;20707;-60
2023/06/29 21:30:14;;;;;;;6.85;3.45;;;;;;;;;;8334608;28;20036;-60
2023/06/29 21:34:14;;;;;;;6.22;3.08;;;;;;;;;;8315966;28;20103;-60
2023/06/29 21:38:15;;;;;;;5.20;3.33;;;;;;;;;;8338328;28;20090;-60
2023/06/29 21:42:15;;;;;;;4.63;3.30;;;;;;;;;;8331328;28;20056;-60
2023/06/29 21:46:15;;;;;;;6.63;3.10;;;;;;;;;;8336834;28;20046;-60
2023/06/29 21:50:15;;;;;;;11.20;3.00;;;;;;;;;;8333540;28;20025;-60
2023/06/29 21:54:15;;;;;;;5.00;3.33;;;;;;;;;;8333950;28;20024;-60
2023/06/29 21:58:16;;;;;;;9.07;3.30;;;;;;;;;;8338177;28;20032;-60
2023/06/29 22:02:16;;;;;;;5.20;2.90;;;;;;;;;;8333814;28;20795;-60
2023/06/29 22:06:16;;;;;;;4.00;3.00;;;;;;;;;;8330313;28;20035;-60
2023/06/29 22:10:16;;;;;;;6.13;3.00;;;;;;;;;;8331251;28;20032;-60
2023/06/29 22:14:17;;;;;;;3.60;2.80;;;;;;;;;;8333767;28;20021;-60
2023/06/29 22:18:17;;;;;;;4.50;2.97;;;;;;;;;;8332969;28;20510;-60
2023/06/29 22:22:17;;;;;;;6.45;3.28;;;;;;;;;;8332818;28;20115;-60
2023/06/29 22:26:18;;;;;;;3.38;3.08;;;;;;;;;;8334957;28;20127;-60
2023/06/29 22:30:18;;;;;;;3.40;3.10;;;;;;;;;;8332414;28;20040;-60
2023/06/29 22:34:19;;;;;;;3.90;2.88;;;;;;;;;;8333882;28;20331;-60
2023/06/29 22:38:19;;;;;;;4.00;2.78;;;;;;;;;;8340479;28;20417;-60
2023/06/29 22:42:19;;;;;;;4.32;2.90;;;;;;;;;;8333693;28;20029;-60
2023/06/29 22:46:20;;;;;;;4.13;2.80;;;;;;;;;;8320460;28;20086;-60
2023/06/29 22:50:20;;;;;;;4.53;2.70;;;;;;;;;;8336906;28;20115;-60
2023/06/29 22:54:20;;;;;;;4.33;3.00;;;;;;;;;;8345509;28;20025;-60
2023/06/29 22:58:26;;;;;;;4.68;3.03;;;;;;;;;;8346925;28;20020;-60
2023/06/29 23:02:27;;;;;;;3.33;3.00;;;;;;;;;;8340649;28;20037;-60
2023/06/29 23:06:28;;;;;;;4.47;3.10;;;;;;;;;;8345457;28;20025;-60
2023/06/29 23:10:28;;;;;;;4.30;3.10;;;;;;;;;;8343333;28;20286;-60
2023/06/29 23:14:29;;;;;;;5.85;3.33;;;;;;;;;;8344685;28;20060;-60
2023/06/29 23:18:29;;;;;;;5.25;3.10;;;;;;;;;;8348291;28;20070;-60
2023/06/29 23:22:29;;;;;;;4.00;3.20;;;;;;;;;;8346111;28;20032;-60
2023/06/29 23:26:29;;;;;;;3.93;3.07;;;;;;;;;;8344845;28;20020;-60
2023/06/29 23:30:30;;;;;;;3.65;3.20;;;;;;;;;;8349887;28;20073;-60
2023/06/29 23:34:30;;;;;;;6.30;2.92;;;;;;;;;;8347218;28;20031;-60
2023/06/29 23:38:30;;;;;;;4.60;3.03;;;;;;;;;;8346602;28;20514;-60
2023/06/29 23:42:34;;;;;;;3.73;2.50;;;;;;;;;;8343935;28;20028;-60
2023/06/29 23:46:42;;;;;;;4.43;3.08;;;;;;;;;;8324125;28;20371;-60
2023/06/29 23:50:43;;;;;;;6.55;3.00;;;;;;;;;;8343652;28;20051;-60
2023/06/29 23:54:43;;;;;;;4.55;3.20;;;;;;;;;;8344335;28;20850;-60
2023/06/29 23:58:43;;;;;;;4.43;3.00;;;;;;;;;;8342492;28;20048;-61
